Time;durP1;ratioP1;P1;durP2;ratioP2;P2;SDS_P1;SDS_P2;PMS_P1;PMS_P2;Temp;Humidity;BMP_temperature;BMP_pressure;BME280_temperature;BME280_humidity;BME280_pressure;Samples;Min_cycle;Max_cycle;Signal;HPM_P1;HPM_P2
2022/10/31 00:02:03;;;;;;;8.13;3.93;;;8.60;96.30;;;;;;4974015;28;20470;-76
2022/10/31 00:04:28;;;;;;;16.53;4.83;;;8.60;96.30;;;;;;4975390;28;20212;-76
2022/10/31 00:06:54;;;;;;;18.90;5.33;;;8.60;96.30;;;;;;4974746;28;20293;-76
2022/10/31 00:09:19;;;;;;;16.80;4.50;;;8.50;96.30;;;;;;4975271;28;20171;-77
2022/10/31 00:11:45;;;;;;;11.53;4.33;;;8.40;96.30;;;;;;4975172;28;20199;-76
2022/10/31 00:14:10;;;;;;;13.37;4.17;;;8.40;96.30;;;;;;4973922;28;20180;-77
2022/10/31 00:16:36;;;;;;;11.33;4.50;;;8.30;96.30;;;;;;4974925;28;20178;-79
2022/10/31 00:19:05;;;;;;;16.47;4.47;;;8.30;96.30;;;;;;4974651;28;20170;-78
2022/10/31 00:21:32;;;;;;;9.40;4.50;;;8.30;96.30;;;;;;4975066;28;20194;-76
2022/10/31 00:23:58;;;;;;;8.10;4.23;;;8.30;96.30;;;;;;4973753;28;20476;-76
2022/10/31 00:26:26;;;;;;;17.53;4.40;;;8.30;96.30;;;;;;4974914;28;20695;-77
2022/10/31 00:28:51;;;;;;;6.10;3.67;;;8.20;96.30;;;;;;4974483;28;20406;-77
2022/10/31 00:31:17;;;;;;;12.73;4.80;;;8.20;96.30;;;;;;4973488;28;20459;-76
2022/10/31 00:33:43;;;;;;;8.20;4.13;;;8.30;96.30;;;;;;4978482;28;20184;-77
2022/10/31 00:36:12;;;;;;;14.07;4.67;;;8.20;96.30;;;;;;4977089;28;20226;-77
2022/10/31 00:38:37;;;;;;;10.53;4.10;;;8.20;96.30;;;;;;4977427;28;20545;-77
2022/10/31 00:41:03;;;;;;;8.23;3.93;;;8.20;96.30;;;;;;4975397;28;20429;-77
2022/10/31 00:43:28;;;;;;;5.93;4.27;;;8.20;96.30;;;;;;4977684;28;20185;-77
2022/10/31 00:45:54;;;;;;;7.03;4.40;;;;;;;;;;4982212;28;20193;-77
2022/10/31 00:48:20;;;;;;;9.70;4.40;;;;;;;;;;4983555;28;20257;-77
2022/10/31 00:50:46;;;;;;;7.97;4.40;;;8.10;96.30;;;;;;4973121;28;20437;-77
2022/10/31 00:53:11;;;;;;;9.67;3.43;;;8.10;96.30;;;;;;4974517;28;20538;-77
2022/10/31 00:55:37;;;;;;;12.47;4.87;;;8.10;96.30;;;;;;4972988;28;20174;-78
2022/10/31 00:58:03;;;;;;;11.60;4.97;;;8.10;96.30;;;;;;4973863;28;20200;-77
2022/10/31 05:01:35;;;;;;;5.13;2.80;;;;;;;;;;5459650;23;21053;-78
2022/10/31 05:04:00;;;;;;;7.03;2.83;;;6.80;96.30;;;;;;5012838;28;20447;-77
2022/10/31 05:06:26;;;;;;;4.87;2.40;;;6.70;96.30;;;;;;4995458;28;20487;-78
2022/10/31 05:08:52;;;;;;;5.23;2.53;;;6.70;96.30;;;;;;5012696;28;20169;-78
2022/10/31 05:11:17;;;;;;;7.23;3.30;;;6.70;96.30;;;;;;4986072;28;20197;-78
2022/10/31 05:13:43;;;;;;;9.83;2.90;;;6.60;96.30;;;;;;4993503;28;20429;-77
2022/10/31 05:16:08;;;;;;;6.83;2.20;;;6.60;96.30;;;;;;5000139;28;20196;-78
2022/10/31 05:18:34;;;;;;;7.40;2.90;;;6.70;96.30;;;;;;4985494;28;20178;-79
2022/10/31 05:26:10;;;;;;;5.13;2.73;;;;;;;;;;5046842;23;20513;-80
2022/10/31 05:28:36;;;;;;;4.20;2.80;;;6.90;96.30;;;;;;5014655;28;20455;-80
2022/10/31 05:31:01;;;;;;;6.43;2.27;;;6.90;96.30;;;;;;5007722;28;20196;-80
2022/10/31 05:33:27;;;;;;;5.20;2.10;;;6.80;96.30;;;;;;4995324;28;20268;-79
2022/10/31 05:35:52;;;;;;;11.97;3.43;;;6.70;96.30;;;;;;4994950;28;20656;-80
2022/10/31 05:38:18;;;;;;;7.97;2.97;;;6.60;96.30;;;;;;4994643;28;20184;-80
2022/10/31 05:40:49;;;;;;;8.90;2.97;;;6.60;96.30;;;;;;4995969;28;20228;-80
2022/10/31 05:43:15;;;;;;;4.67;2.70;;;6.50;96.30;;;;;;4996847;28;20184;-80
2022/10/31 05:45:40;;;;;;;10.27;2.37;;;6.50;96.30;;;;;;4995223;28;20442;-80
2022/10/31 05:48:06;;;;;;;10.43;2.67;;;6.50;96.30;;;;;;4994545;28;20193;-80
2022/10/31 05:50:31;;;;;;;10.70;3.00;;;6.50;96.30;;;;;;5012547;28;20197;-80
2022/10/31 05:53:00;;;;;;;4.10;2.20;;;6.50;96.30;;;;;;5012742;28;20177;-80
2022/10/31 05:55:25;;;;;;;4.00;2.23;;;6.50;96.30;;;;;;4994873;28;20235;-79
2022/10/31 05:57:52;;;;;;;6.40;2.63;;;6.60;96.30;;;;;;5012072;28;20408;-79
2022/10/31 06:00:19;;;;;;;6.63;2.63;;;6.60;96.30;;;;;;4994859;28;20181;-79
2022/10/31 06:02:44;;;;;;;10.60;2.90;;;6.70;96.30;;;;;;4977549;28;20531;-78
2022/10/31 06:05:10;;;;;;;10.20;2.60;;;6.80;96.30;;;;;;5011641;28;20397;-79
2022/10/31 06:07:36;;;;;;;5.37;2.33;;;6.90;96.30;;;;;;5016801;28;20204;-78
2022/10/31 06:10:03;;;;;;;16.63;2.30;;;7.00;96.30;;;;;;5024127;28;20172;-78
2022/10/31 06:12:30;;;;;;;7.50;2.30;;;7.10;96.30;;;;;;5012326;28;20220;-78
2022/10/31 06:14:55;;;;;;;6.97;2.60;;;7.50;96.30;;;;;;5000749;28;20409;-78
2022/10/31 06:17:21;;;;;;;7.57;2.70;;;7.80;96.30;;;;;;5010760;28;20494;-78
2022/10/31 06:19:47;;;;;;;11.40;2.37;;;8.10;96.30;;;;;;5000641;28;20189;-78
2022/10/31 06:22:12;;;;;;;5.57;2.27;;;8.60;96.30;;;;;;4980355;28;20609;-77
2022/10/31 06:24:38;;;;;;;7.20;3.13;;;9.00;96.30;;;;;;5000493;28;20216;-77
2022/10/31 06:27:05;;;;;;;4.17;2.57;;;9.70;96.30;;;;;;4996639;28;20288;-77
2022/10/31 06:29:31;;;;;;;4.57;2.17;;;10.20;96.30;;;;;;4996814;28;20229;-76
2022/10/31 06:31:56;;;;;;;8.03;2.30;;;10.90;96.30;;;;;;4997836;28;20526;-78
2022/10/31 06:34:22;;;;;;;12.20;2.27;;;;;;;;;;4997314;28;20180;-78
2022/10/31 06:36:48;;;;;;;6.00;2.60;;;11.10;96.30;;;;;;5012852;28;20188;-77
2022/10/31 06:39:14;;;;;;;6.83;2.53;;;11.30;96.30;;;;;;5008461;28;20199;-77
2022/10/31 06:41:41;;;;;;;12.83;2.50;;;10.90;96.30;;;;;;5007896;28;20699;-77
2022/10/31 06:44:07;;;;;;;3.23;2.10;;;10.60;96.30;;;;;;4993175;28;20462;-76
2022/10/31 06:46:33;;;;;;;4.07;2.33;;;10.50;96.30;;;;;;5010735;28;20539;-75
2022/10/31 06:48:59;;;;;;;6.73;2.57;;;10.10;96.30;;;;;;5011731;28;20447;-75
2022/10/31 06:51:25;;;;;;;9.10;4.37;;;9.70;96.30;;;;;;5014062;28;20467;-75
2022/10/31 06:53:50;;;;;;;10.17;7.03;;;9.40;96.30;;;;;;5014824;28;20187;-76
2022/10/31 06:56:16;;;;;;;9.50;5.73;;;9.10;96.30;;;;;;5014770;28;20165;-77
2022/10/31 06:58:42;;;;;;;4.03;2.50;;;8.90;96.30;;;;;;5012103;28;20256;-77
2022/10/31 07:01:07;;;;;;;4.77;1.90;;;9.00;96.30;;;;;;4995487;28;20711;-76
2022/10/31 07:03:33;;;;;;;6.80;2.30;;;;;;;;;;4995564;28;20215;-76
2022/10/31 07:05:59;;;;;;;6.37;2.50;;;9.10;96.30;;;;;;5013733;28;20177;-76
2022/10/31 07:08:25;;;;;;;6.10;2.40;;;9.10;96.30;;;;;;5013745;28;20498;-76
2022/10/31 07:10:53;;;;;;;4.50;1.93;;;9.00;96.30;;;;;;5014708;28;20192;-74
2022/10/31 07:13:24;;;;;;;9.13;2.30;;;9.00;96.30;;;;;;5014854;28;20181;-76
2022/10/31 07:15:50;;;;;;;6.10;3.23;;;8.90;96.30;;;;;;5014689;28;20416;-76
2022/10/31 07:18:16;;;;;;;4.50;2.00;;;8.90;96.30;;;;;;5014358;28;20416;-76
2022/10/31 07:20:41;;;;;;;5.80;2.67;;;9.00;96.30;;;;;;5014571;28;20439;-75
2022/10/31 07:23:09;;;;;;;6.60;2.57;;;9.10;96.30;;;;;;5014674;28;20656;-76
2022/10/31 07:25:35;;;;;;;7.00;2.00;;;9.20;96.30;;;;;;5013945;28;20192;-77
2022/10/31 07:28:00;;;;;;;4.97;2.80;;;9.30;96.30;;;;;;5013155;28;20455;-78
2022/10/31 07:30:26;;;;;;;6.30;2.57;;;9.30;96.30;;;;;;5014295;28;20593;-78
2022/10/31 07:32:51;;;;;;;3.70;2.10;;;9.30;96.30;;;;;;5014192;28;20172;-77
2022/10/31 07:35:20;;;;;;;8.00;2.67;;;9.40;96.30;;;;;;5014176;28;20661;-77
2022/10/31 07:37:45;;;;;;;6.43;2.17;;;9.50;96.30;;;;;;5013617;28;20169;-77
2022/10/31 07:40:11;;;;;;;9.03;2.50;;;9.60;96.30;;;;;;4996262;28;20424;-77
2022/10/31 07:42:42;;;;;;;5.87;2.40;;;9.60;96.30;;;;;;5013664;28;20219;-77
2022/10/31 07:45:10;;;;;;;4.50;2.77;;;9.70;96.30;;;;;;5012839;28;20473;-77
2022/10/31 07:47:40;;;;;;;6.87;2.23;;;9.80;96.30;;;;;;5012230;28;20462;-78
2022/10/31 07:50:06;;;;;;;5.77;2.97;;;9.90;96.30;;;;;;4995976;28;20412;-78
2022/10/31 07:52:31;;;;;;;5.40;2.17;;;9.90;96.30;;;;;;5014462;28;20424;-78
2022/10/31 07:54:57;;;;;;;7.70;2.53;;;10.00;96.30;;;;;;5014659;28;20410;-79
2022/10/31 07:57:22;;;;;;;9.10;3.33;;;10.10;96.30;;;;;;5014072;28;20630;-77
2022/10/31 07:59:48;;;;;;;10.10;2.70;;;10.20;96.30;;;;;;5014388;28;20654;-78
2022/10/31 08:02:13;;;;;;;4.33;2.37;;;10.40;96.30;;;;;;5014484;28;20275;-77
2022/10/31 08:04:39;;;;;;;4.30;2.70;;;10.50;96.30;;;;;;5014423;28;20180;-77
2022/10/31 08:07:04;;;;;;;3.40;2.10;;;10.60;96.30;;;;;;4995624;28;20189;-77
2022/10/31 08:09:30;;;;;;;3.90;2.27;;;10.70;96.30;;;;;;5014138;28;20173;-77
2022/10/31 08:11:55;;;;;;;5.67;2.10;;;10.80;96.30;;;;;;5014181;28;20188;-77
2022/10/31 08:14:22;;;;;;;10.73;3.23;;;10.90;96.30;;;;;;4993139;28;20177;-77
2022/10/31 08:16:47;;;;;;;4.03;2.40;;;10.90;96.30;;;;;;4976474;28;20269;-77
2022/10/31 08:19:13;;;;;;;8.70;2.23;;;11.00;96.30;;;;;;4994431;28;20512;-78
2022/10/31 08:21:38;;;;;;;6.20;2.57;;;11.20;96.30;;;;;;4994444;28;20198;-77
2022/10/31 08:24:04;;;;;;;4.23;2.20;;;11.30;96.30;;;;;;4993716;28;20236;-78
2022/10/31 08:26:30;;;;;;;7.60;2.30;;;;;;;;;;4994185;28;20209;-78
2022/10/31 08:28:56;;;;;;;6.30;2.90;;;;;;;;;;4976610;28;20785;-77
2022/10/31 08:31:22;;;;;;;5.00;2.10;;;11.70;96.30;;;;;;4994001;28;20421;-77
2022/10/31 08:33:48;;;;;;;11.93;2.30;;;11.80;96.30;;;;;;4976547;28;20937;-77
2022/10/31 08:36:14;;;;;;;5.10;2.43;;;11.90;96.30;;;;;;4994097;28;20424;-77
2022/10/31 08:38:39;;;;;;;6.17;2.80;;;12.10;96.30;;;;;;4993643;28;20921;-78
2022/10/31 08:41:05;;;;;;;4.47;2.63;;;12.20;96.30;;;;;;4976700;28;20224;-78
2022/10/31 08:43:31;;;;;;;5.73;2.90;;;;;;;;;;5005047;28;20185;-77
2022/10/31 08:45:56;;;;;;;4.03;2.70;;;12.40;96.30;;;;;;5013047;28;20179;-78
2022/10/31 08:48:22;;;;;;;7.73;2.17;;;12.50;96.30;;;;;;5012780;28;20226;-78
2022/10/31 08:50:47;;;;;;;7.17;3.00;;;12.60;96.30;;;;;;5011160;28;20659;-78
2022/10/31 08:53:18;;;;;;;6.13;2.83;;;12.70;96.30;;;;;;4993640;28;20181;-78
2022/10/31 08:55:45;;;;;;;5.77;2.27;;;12.80;96.30;;;;;;4993779;28;20165;-78
2022/10/31 08:58:13;;;;;;;6.40;2.60;;;12.90;96.30;;;;;;4992878;28;20500;-78
2022/10/31 09:00:39;;;;;;;5.40;2.50;;;13.10;96.30;;;;;;4975829;28;20432;-78
2022/10/31 09:03:09;;;;;;;3.73;2.30;;;13.20;96.30;;;;;;4993402;28;21005;-78
2022/10/31 09:05:36;;;;;;;5.47;2.60;;;13.30;96.30;;;;;;5000613;28;20769;-78
2022/10/31 09:08:03;;;;;;;4.37;3.13;;;13.50;96.30;;;;;;5010403;28;20474;-78
2022/10/31 09:10:31;;;;;;;6.33;2.73;;;13.60;96.30;;;;;;4993258;28;20474;-78
2022/10/31 09:12:59;;;;;;;5.37;2.80;;;13.70;96.30;;;;;;5011209;28;20404;-78
2022/10/31 09:15:26;;;;;;;5.50;2.80;;;13.80;96.30;;;;;;5012559;28;20416;-78
2022/10/31 09:17:52;;;;;;;6.07;2.93;;;14.00;96.30;;;;;;4994284;28;20420;-79
2022/10/31 09:20:18;;;;;;;6.47;3.00;;;14.20;96.30;;;;;;4995208;28;20434;-77
2022/10/31 09:22:44;;;;;;;10.40;2.77;;;14.30;96.30;;;;;;5012729;28;20295;-77
2022/10/31 09:25:09;;;;;;;6.00;2.70;;;14.50;96.30;;;;;;5012461;28;20220;-78
2022/10/31 09:27:35;;;;;;;10.13;2.97;;;;;;;;;;5004007;28;20485;-78
2022/10/31 09:30:01;;;;;;;6.70;2.90;;;14.80;96.30;;;;;;5006399;28;20220;-78
2022/10/31 09:32:26;;;;;;;10.30;2.80;;;14.90;96.30;;;;;;5012716;28;20482;-79
2022/10/31 09:34:52;;;;;;;7.43;2.73;;;15.00;96.30;;;;;;5012639;28;20889;-78
2022/10/31 09:37:17;;;;;;;2.87;1.97;;;15.10;96.30;;;;;;4995090;28;20226;-77
2022/10/31 09:39:43;;;;;;;6.13;2.17;;;15.20;96.30;;;;;;5012956;28;20264;-78
2022/10/31 09:42:30;;;;;;;7.33;2.67;;;15.40;96.30;;;;;;5012575;28;20262;-78
2022/10/31 09:45:14;;;;;;;5.47;2.13;;;15.50;96.30;;;;;;5012616;28;20201;-78
2022/10/31 09:47:57;;;;;;;5.90;2.50;;;15.60;96.30;;;;;;5012324;28;20455;-78
2022/10/31 09:50:29;;;;;;;7.20;2.53;;;15.80;96.30;;;;;;5012253;28;20431;-78
2022/10/31 09:53:04;;;;;;;8.60;2.50;;;15.90;96.30;;;;;;5012410;28;20404;-78
2022/10/31 09:55:46;;;;;;;7.93;2.10;;;16.00;96.30;;;;;;4994730;28;20442;-79
2022/10/31 09:58:32;;;;;;;5.90;2.50;;;16.10;96.30;;;;;;5012101;28;20396;-78
2022/10/31 10:01:00;;;;;;;6.63;2.30;;;16.40;96.30;;;;;;5012430;28;20797;-79
2022/10/31 10:03:49;;;;;;;8.47;2.90;;;17.30;96.30;;;;;;5012160;28;20961;-78
2022/10/31 10:06:24;;;;;;;6.23;2.50;;;18.50;96.30;;;;;;5012098;28;20419;-78
2022/10/31 10:08:50;;;;;;;8.93;2.53;;;19.40;96.30;;;;;;5011659;28;20946;-79
2022/10/31 10:11:45;;;;;;;18.10;2.90;;;20.00;96.30;;;;;;5010926;28;20431;-79
2022/10/31 10:14:19;;;;;;;6.93;2.80;;;20.30;96.30;;;;;;4992941;28;20688;-80
2022/10/31 10:17:18;;;;;;;7.73;2.13;;;21.10;96.30;;;;;;4992517;28;20417;-80
2022/10/31 10:19:52;;;;;;;10.43;2.70;;;20.70;96.30;;;;;;4993634;28;20404;-80
2022/10/31 10:22:39;;;;;;;7.03;2.53;;;21.00;96.30;;;;;;4975409;28;20479;-80
2022/10/31 10:25:15;;;;;;;5.83;2.80;;;21.90;95.10;;;;;;4980413;28;20444;-81
2022/10/31 10:27:54;;;;;;;6.60;3.10;;;21.50;94.00;;;;;;4996049;28;20480;-77
2022/10/31 10:30:20;;;;;;;8.80;3.60;;;;;;;;;;4983667;28;20529;-81
2022/10/31 10:32:56;;;;;;;10.17;2.07;;;21.60;96.30;;;;;;5007274;28;20420;-78
2022/10/31 10:35:27;;;;;;;11.37;3.13;;;21.90;93.70;;;;;;4978516;28;20861;-78
2022/10/31 10:38:00;;;;;;;13.10;3.13;;;22.20;92.80;;;;;;4995488;28;20412;-78
2022/10/31 10:40:27;;;;;;;8.03;2.80;;;21.80;93.10;;;;;;4995783;28;20416;-78
2022/10/31 10:48:41;;;;;;;9.37;2.93;;;21.50;96.30;;;;;;5003213;28;20454;-78
2022/10/31 10:51:15;;;;;;;9.60;2.57;;;21.70;96.30;;;;;;5001077;28;21094;-78
2022/10/31 10:54:03;;;;;;;6.30;2.43;;;21.60;96.30;;;;;;4999618;28;20938;-78
2022/10/31 10:56:52;;;;;;;8.77;2.60;;;;;;;;;;5001359;28;20418;-79
2022/10/31 10:59:20;;;;;;;8.53;2.40;;;21.60;96.30;;;;;;4968401;28;20489;-80
2022/10/31 11:01:50;;;;;;;11.63;3.20;;;21.60;96.30;;;;;;5000015;28;20455;-79
2022/10/31 11:04:35;;;;;;;4.23;2.53;;;21.60;96.30;;;;;;5015426;28;20423;-80
2022/10/31 11:07:10;;;;;;;14.73;2.73;;;21.90;96.30;;;;;;5001551;28;20486;-80
2022/10/31 11:09:36;;;;;;;7.23;2.63;;;21.90;96.30;;;;;;5020138;28;20403;-79
2022/10/31 11:12:15;;;;;;;6.30;2.47;;;21.70;95.80;;;;;;5020645;28;20442;-78
2022/10/31 11:14:52;;;;;;;9.50;2.30;;;;;;;;;;5019958;28;20396;-79
2022/10/31 11:17:31;;;;;;;6.20;2.50;;;22.00;96.30;;;;;;5019894;28;20418;-80
2022/10/31 11:20:01;;;;;;;6.30;3.10;;;21.90;94.30;;;;;;5021444;28;20907;-80
2022/10/31 11:22:27;;;;;;;6.73;2.63;;;21.90;96.30;;;;;;5003433;28;20470;-80
2022/10/31 11:24:52;;;;;;;4.83;2.50;;;;;;;;;;5020565;28;20431;-80
2022/10/31 11:27:25;;;;;;;9.67;3.00;;;;;;;;;;5019958;28;20200;-78
2022/10/31 11:29:52;;;;;;;4.93;2.80;;;;;;;;;;5015562;28;20169;-78
2022/10/31 11:32:23;;;;;;;8.17;3.20;;;;;;;;;;5010795;28;20581;-78
2022/10/31 11:34:58;;;;;;;5.33;2.50;;;;;;;;;;4993736;28;20417;-78
2022/10/31 11:37:27;;;;;;;4.17;2.77;;;22.00;96.30;;;;;;5001640;28;20412;-78
2022/10/31 11:39:55;;;;;;;6.60;2.40;;;;;;;;;;4978752;28;20425;-80
2022/10/31 11:42:27;;;;;;;6.23;2.53;;;22.00;96.30;;;;;;4993095;28;20437;-80
2022/10/31 11:44:54;;;;;;;7.00;2.60;;;22.00;96.30;;;;;;4994714;28;20436;-80
2022/10/31 11:47:32;;;;;;;10.07;3.00;;;22.20;96.30;;;;;;4993844;28;20456;-80
2022/10/31 11:50:01;;;;;;;10.17;3.07;;;22.20;96.30;;;;;;4994906;28;20467;-79
2022/10/31 11:52:32;;;;;;;3.97;2.23;;;;;;;;;;4993255;28;20451;-79
2022/10/31 11:54:59;;;;;;;8.37;2.60;;;;;;;;;;5007278;28;20424;-79
2022/10/31 11:57:29;;;;;;;8.83;2.77;;;22.20;95.80;;;;;;5012152;28;20473;-79
2022/10/31 11:59:57;;;;;;;13.47;3.10;;;;;;;;;;5013261;28;20419;-80
2022/10/31 12:02:26;;;;;;;16.03;2.50;;;;;;;;;;5013023;28;20566;-79
2022/10/31 12:04:59;;;;;;;6.67;2.97;;;22.40;96.30;;;;;;5012316;28;20506;-79
2022/10/31 12:07:25;;;;;;;7.47;3.03;;;;;;;;;;5011122;28;20470;-79
2022/10/31 12:09:51;;;;;;;7.97;2.47;;;;;;;;;;4994563;28;20416;-79
2022/10/31 12:12:36;;;;;;;6.17;2.63;;;;;;;;;;5012777;28;20201;-79
2022/10/31 12:15:05;;;;;;;9.90;2.80;;;;;;;;;;5013365;28;20938;-79
2022/10/31 12:17:38;;;;;;;4.30;2.03;;;;;;;;;;5013388;28;20441;-80
2022/10/31 12:20:39;;;;;;;12.13;2.73;;;;;;;;;;5012916;28;20418;-78
2022/10/31 12:23:26;;;;;;;8.60;2.40;;;;;;;;;;4900224;29;20420;-80
2022/10/31 12:26:20;;;;;;;8.93;2.77;;;22.40;96.30;;;;;;4990432;28;20446;-79
2022/10/31 12:28:55;;;;;;;6.63;3.03;;;;;;;;;;5012697;28;20483;-79
2022/10/31 12:31:27;;;;;;;10.93;2.80;;;;;;;;;;4995923;28;20488;-80
2022/10/31 12:34:12;;;;;;;7.70;2.80;;;22.40;96.30;;;;;;5013238;28;20430;-79
2022/10/31 12:36:44;;;;;;;7.97;2.87;;;;;;;;;;5012707;28;20770;-83
2022/10/31 12:39:31;;;;;;;13.30;3.27;;;;;;;;;;5013472;28;20404;-78
2022/10/31 12:42:14;;;;;;;9.70;3.00;;;22.30;96.30;;;;;;5013144;28;20986;-79
2022/10/31 12:45:15;;;;;;;9.60;2.60;;;22.00;96.30;;;;;;5012306;28;20400;-79
2022/10/31 12:48:08;;;;;;;12.17;2.70;;;21.90;96.30;;;;;;5008914;28;20467;-79
2022/10/31 12:51:08;;;;;;;14.83;2.70;;;21.90;96.30;;;;;;5013189;28;20808;-78
2022/10/31 12:53:55;;;;;;;5.30;2.53;;;21.70;96.30;;;;;;4960879;28;20459;-80
2022/10/31 12:56:26;;;;;;;7.20;2.63;;;21.70;96.30;;;;;;5013398;28;20479;-78
2022/10/31 12:58:56;;;;;;;10.30;2.97;;;;;;;;;;4995936;28;21447;-80
2022/10/31 13:01:31;;;;;;;9.43;3.27;;;21.70;96.30;;;;;;4996680;28;20427;-79
2022/10/31 13:04:00;;;;;;;6.70;2.27;;;;;;;;;;5014090;28;20388;-79
2022/10/31 13:06:38;;;;;;;11.10;3.40;;;21.70;96.30;;;;;;5014451;28;20404;-79
2022/10/31 13:09:36;;;;;;;9.10;3.27;;;;;;;;;;5016694;28;20396;-80
2022/10/31 13:12:04;;;;;;;5.50;2.50;;;;;;;;;;4971236;28;20493;-80
2022/10/31 13:14:34;;;;;;;5.83;2.30;;;;;;;;;;5022680;28;20405;-80
2022/10/31 13:17:01;;;;;;;6.13;2.70;;;;;;;;;;5019315;28;20408;-79
2022/10/31 13:20:17;;;;;;;9.60;2.80;;;21.40;96.30;;;;;;5017799;28;20419;-81
2022/10/31 13:22:44;;;;;;;8.30;2.80;;;;;;;;;;4914504;29;20458;-79
2022/10/31 13:25:27;;;;;;;7.50;2.83;;;21.40;96.30;;;;;;4994389;28;20444;-79
2022/10/31 13:27:56;;;;;;;10.20;2.40;;;;;;;;;;5012212;28;20443;-78
2022/10/31 13:30:24;;;;;;;11.20;3.23;;;21.40;96.30;;;;;;4995214;28;20408;-78
2022/10/31 13:32:57;;;;;;;15.60;3.93;;;;;;;;;;5012823;28;20490;-77
2022/10/31 13:35:41;;;;;;;6.23;2.93;;;;;;;;;;4994922;28;20458;-77
2022/10/31 13:38:21;;;;;;;9.47;3.00;;;21.80;96.30;;;;;;4994671;28;21052;-77
2022/10/31 13:40:47;;;;;;;9.40;2.50;;;;;;;;;;5012463;28;20454;-77
2022/10/31 13:43:26;;;;;;;10.93;3.50;;;21.80;96.30;;;;;;5012670;28;20896;-78
2022/10/31 13:45:53;;;;;;;8.80;2.30;;;;;;;;;;5012496;28;20181;-78
2022/10/31 13:48:25;;;;;;;16.63;3.50;;;21.80;96.30;;;;;;5011889;28;20828;-78
2022/10/31 13:50:59;;;;;;;8.07;3.20;;;21.50;96.30;;;;;;5012327;28;20919;-78
2022/10/31 13:53:56;;;;;;;6.43;2.87;;;21.10;96.30;;;;;;5012668;28;20428;-78
2022/10/31 13:56:25;;;;;;;11.53;3.47;;;20.90;96.30;;;;;;5012267;28;20938;-79
2022/10/31 13:59:06;;;;;;;10.27;3.50;;;;;;;;;;5011473;28;20768;-79
2022/10/31 14:01:32;;;;;;;6.70;2.80;;;20.80;96.30;;;;;;5012036;28;20926;-78
2022/10/31 14:04:12;;;;;;;8.13;3.47;;;20.80;96.30;;;;;;5012120;28;20439;-80
2022/10/31 14:06:52;;;;;;;9.00;2.90;;;;;;;;;;5011887;28;20418;-81
2022/10/31 14:09:38;;;;;;;5.53;2.97;;;;;;;;;;4994816;28;20464;-78
2022/10/31 14:12:07;;;;;;;14.47;3.40;;;;;;;;;;4995936;28;20927;-80
2022/10/31 14:14:36;;;;;;;6.13;3.20;;;;;;;;;;5009487;28;20461;-78
2022/10/31 14:17:02;;;;;;;4.90;2.87;;;;;;;;;;4995537;28;20424;-79
2022/10/31 14:19:28;;;;;;;15.07;3.00;;;;;;;;;;4992404;28;20449;-79
2022/10/31 14:21:54;;;;;;;6.63;2.83;;;19.90;96.30;;;;;;4992171;28;20429;-78
2022/10/31 14:24:23;;;;;;;5.93;2.90;;;;;;;;;;5010173;28;20498;-78
2022/10/31 14:26:57;;;;;;;7.57;2.50;;;19.60;96.30;;;;;;4993700;28;20295;-78
2022/10/31 14:29:25;;;;;;;12.40;3.00;;;;;;;;;;5011934;28;20419;-80
2022/10/31 14:32:12;;;;;;;6.23;2.53;;;19.30;96.30;;;;;;5011817;28;20431;-79
2022/10/31 14:34:51;;;;;;;4.87;3.20;;;19.20;96.30;;;;;;5011955;28;20446;-79
2022/10/31 14:38:01;;;;;;;10.80;3.10;;;18.90;96.30;;;;;;4993974;28;20799;-79
2022/10/31 14:40:32;;;;;;;5.67;2.73;;;;;;;;;;4986748;28;21197;-79
2022/10/31 14:43:35;;;;;;;7.47;3.07;;;18.50;96.30;;;;;;4989308;28;20408;-80
2022/10/31 14:46:11;;;;;;;5.80;2.47;;;;;;;;;;4993714;28;20428;-77
2022/10/31 14:48:40;;;;;;;12.00;2.37;;;;;;;;;;4996185;28;20459;-78
2022/10/31 14:51:15;;;;;;;5.00;2.47;;;;;;;;;;5011006;28;20439;-77
2022/10/31 14:54:00;;;;;;;11.10;2.70;;;;;;;;;;5010765;28;20416;-78
2022/10/31 14:56:30;;;;;;;9.77;3.77;;;;;;;;;;5010576;28;20442;-78
2022/10/31 14:59:11;;;;;;;14.50;3.30;;;17.10;96.30;;;;;;5010563;28;20408;-80
2022/10/31 15:01:39;;;;;;;6.53;3.00;;;16.80;96.30;;;;;;4994898;28;20475;-79
2022/10/31 15:04:22;;;;;;;11.13;3.20;;;16.60;96.30;;;;;;5014228;28;20411;-81
2022/10/31 15:07:02;;;;;;;10.17;2.90;;;16.30;96.30;;;;;;5013178;28;20482;-79
2022/10/31 15:09:35;;;;;;;10.50;3.03;;;;;;;;;;4996621;28;20523;-80
2022/10/31 15:12:23;;;;;;;14.33;3.10;;;16.00;96.30;;;;;;5017099;28;20459;-80
2022/10/31 15:14:49;;;;;;;8.73;2.57;;;15.80;96.30;;;;;;4999944;28;20424;-79
2022/10/31 15:17:16;;;;;;;13.27;3.67;;;15.60;96.30;;;;;;4999575;28;20423;-79
2022/10/31 15:19:42;;;;;;;6.43;3.57;;;15.40;96.30;;;;;;5016541;28;20180;-79
2022/10/31 15:22:11;;;;;;;8.37;3.63;;;;;;;;;;5016795;28;20481;-79
2022/10/31 15:24:38;;;;;;;9.47;4.23;;;15.20;96.30;;;;;;5014790;28;20427;-78
2022/10/31 15:27:04;;;;;;;10.97;3.73;;;15.20;96.30;;;;;;5013900;28;20467;-79
2022/10/31 15:29:30;;;;;;;12.53;4.50;;;;;;;;;;5015580;28;20452;-79
2022/10/31 15:32:15;;;;;;;10.30;4.97;;;15.20;96.30;;;;;;4998375;28;20470;-79
2022/10/31 15:34:42;;;;;;;10.43;4.80;;;15.30;96.30;;;;;;4993918;28;20188;-78
2022/10/31 15:37:15;;;;;;;9.80;5.27;;;;;;;;;;4974471;28;20443;-78
2022/10/31 15:39:42;;;;;;;9.03;5.47;;;15.40;96.30;;;;;;4974580;28;20503;-79
2022/10/31 15:42:27;;;;;;;8.60;4.40;;;;;;;;;;4974897;28;20436;-78
2022/10/31 15:44:59;;;;;;;17.67;5.20;;;15.40;96.30;;;;;;4992696;28;20504;-78
2022/10/31 15:47:26;;;;;;;9.40;5.30;;;;;;;;;;4989708;28;20899;-78
2022/10/31 15:49:53;;;;;;;13.97;5.50;;;15.30;96.30;;;;;;4975275;28;20413;-78
2022/10/31 15:52:37;;;;;;;22.43;9.17;;;15.30;96.30;;;;;;4993405;28;20449;-78
2022/10/31 15:55:24;;;;;;;18.50;7.37;;;15.10;96.30;;;;;;4993912;28;20409;-79
2022/10/31 15:57:52;;;;;;;13.60;5.57;;;;;;;;;;4978675;28;20433;-80
2022/10/31 16:00:38;;;;;;;10.17;5.73;;;;;;;;;;4998465;28;20424;-81
2022/10/31 16:03:04;;;;;;;19.40;5.43;;;;;;;;;;4996222;28;20412;-81
2022/10/31 16:05:36;;;;;;;11.33;5.00;;;14.90;96.30;;;;;;4996866;28;20921;-81
2022/10/31 16:08:02;;;;;;;17.20;5.23;;;;;;;;;;4984134;28;20452;-81
2022/10/31 16:10:32;;;;;;;25.83;7.00;;;;;;;;;;4978676;28;20421;-81
2022/10/31 16:13:02;;;;;;;9.90;5.13;;;;;;;;;;4996054;28;20873;-81
2022/10/31 16:15:27;;;;;;;12.47;5.00;;;14.70;96.30;;;;;;4978330;28;20413;-80
2022/10/31 16:17:53;;;;;;;14.53;5.13;;;;;;;;;;4996915;28;20904;-81
2022/10/31 16:20:22;;;;;;;12.30;5.00;;;14.50;96.30;;;;;;4996495;28;20683;-80
2022/10/31 16:22:50;;;;;;;15.67;6.53;;;14.40;96.30;;;;;;4995500;28;20181;-81
2022/10/31 16:25:19;;;;;;;16.63;6.77;;;;;;;;;;4995034;28;20526;-81
2022/10/31 16:27:51;;;;;;;12.97;5.17;;;14.30;96.30;;;;;;4978863;28;20464;-80
2022/10/31 16:30:29;;;;;;;12.07;5.53;;;14.30;96.30;;;;;;4978111;28;20428;-81
2022/10/31 16:32:55;;;;;;;18.60;5.33;;;;;;;;;;4977823;28;20431;-81
2022/10/31 16:35:32;;;;;;;9.50;5.67;;;14.40;96.30;;;;;;4978655;28;20775;-81
2022/10/31 16:37:57;;;;;;;13.67;5.70;;;14.40;96.30;;;;;;4996068;28;20166;-80
2022/10/31 16:40:24;;;;;;;12.07;6.37;;;14.40;96.30;;;;;;4979197;28;20431;-81
2022/10/31 16:42:50;;;;;;;23.97;8.67;;;;;;;;;;4978861;28;20217;-81
2022/10/31 16:45:21;;;;;;;12.97;5.70;;;14.60;96.30;;;;;;4995431;28;20413;-80
2022/10/31 16:47:48;;;;;;;14.90;6.23;;;14.70;96.30;;;;;;4976213;28;20481;-80
2022/10/31 16:50:24;;;;;;;10.70;6.03;;;;;;;;;;5022189;28;20407;-81
2022/10/31 16:52:50;;;;;;;9.63;5.90;;;;;;;;;;5012130;28;20412;-80
2022/10/31 16:55:18;;;;;;;9.30;4.80;;;14.60;96.30;;;;;;5009962;28;20419;-81
2022/10/31 16:57:52;;;;;;;8.50;5.20;;;14.60;96.30;;;;;;5011487;28;20424;-81
2022/10/31 17:00:21;;;;;;;21.07;10.33;;;14.40;96.30;;;;;;5014595;28;20412;-81
2022/10/31 17:02:48;;;;;;;20.97;12.17;;;14.40;96.30;;;;;;5028109;28;20969;-80
2022/10/31 17:05:16;;;;;;;15.87;8.97;;;14.40;96.30;;;;;;5014929;28;20416;-80
2022/10/31 17:07:42;;;;;;;16.17;8.40;;;14.30;96.30;;;;;;4996596;28;20474;-81
2022/10/31 17:10:10;;;;;;;16.13;7.30;;;14.20;96.30;;;;;;4997720;28;20420;-80
2022/10/31 17:12:36;;;;;;;12.00;5.60;;;14.20;96.30;;;;;;4996818;28;20196;-80
2022/10/31 17:15:02;;;;;;;16.00;5.83;;;;;;;;;;4997241;28;20511;-80
2022/10/31 17:17:28;;;;;;;12.60;5.13;;;;;;;;;;5025596;28;20430;-79
2022/10/31 17:19:54;;;;;;;10.03;5.17;;;;;;;;;;5013911;28;20893;-80
2022/10/31 17:22:20;;;;;;;10.37;7.00;;;14.20;96.30;;;;;;4996538;28;20451;-80
2022/10/31 17:24:45;;;;;;;9.63;5.70;;;14.20;96.30;;;;;;4996255;28;20443;-80
2022/10/31 17:27:11;;;;;;;11.67;5.80;;;;;;;;;;5014258;28;20639;-79
2022/10/31 17:29:37;;;;;;;9.27;5.13;;;14.20;96.30;;;;;;4996306;28;20539;-79
2022/10/31 17:37:09;;;;;;;11.10;4.50;;;;;;;;;;5033118;28;20474;-80
2022/10/31 17:39:35;;;;;;;18.97;6.47;;;;;;;;;;5034474;28;20434;-79
2022/10/31 17:42:01;;;;;;;8.93;6.77;;;14.20;96.30;;;;;;5015535;28;20432;-80
2022/10/31 17:44:26;;;;;;;9.37;4.77;;;14.20;96.30;;;;;;5016890;28;20226;-80
2022/10/31 17:46:52;;;;;;;13.83;5.20;;;14.10;96.30;;;;;;5032484;28;20663;-79
2022/10/31 17:49:18;;;;;;;10.83;5.90;;;;;;;;;;5017130;28;20263;-79
2022/10/31 17:51:44;;;;;;;11.77;5.50;;;;;;;;;;5017185;28;20721;-80